Beta Version
Granted Patents


NoApplication NoTitle Of The InnovationPatent NoGrant DateFirst Page
1 GC 2009-12648 METHOD AND PLANT FOR THE DESALINATION OF SALT WATER USING MSF DESALINATION UNITS WITH A STEAM RECIRCULATION SYSTEM GC0010524 2019/05/23 HTML
2 GC 2014-27500 INTEGRATED COMPUTATIONAL ELEMENTS WITH LATERALLY-DISTRIBUTED SPECTRAL FILTERS GC0010523 2019/05/23 HTML
3 GC 2017-33664 COOLING TANK FOR WATER GC0010522 2019/05/23 HTML
4 GC 2016-31290 HEAT RECOVERY GC0010521 2019/05/23 HTML
5 GC 2015-30356 DRILLING TOOL BEARING AND DRIVETRAIN ASSEMBLY GC0010520 2019/05/23 HTML
6 GC 2017-33878 WHIPSTOCK ASSEMBLIES WITH A RETRACTABLE TENSION ARM GC0010519 2019/05/23 HTML
7 GC 2016-31878 DISTRIBUTED MAGNETOMOTIVE FORCE SENSING GC0010518 2019/05/23 HTML
8 GC 2015-30165 A PROCESS FOR THE PRODUCTION OF OLIGOMERIZED OLEFINS GC0010517 2019/05/23 HTML
9 GC 2015-29699 MULTIMODAL POLYETHYLENE GC0010516 2019/05/23 HTML
10 GC 2015-29803 COMPOSITIONS AND METHODS OF USE FOR TREATING METABOLIC DISORDERS GC0010515 2019/05/23 HTML
11 GC 2015-30643 GIP AND GLP-1 CO-AGONIST COMPOUNDS GC0010514 2019/05/23 HTML
12 GC 2016-32183 PLATE HEAT EXCHANGER CONDENSER-EVAPORATOR AND PROCESS FOR LOW-TEMPERATURE AIR SEPARATION GC0010513 2019/05/23 HTML
13 GC 2017-33046 PROCESS FOR THE MANUFACTURE OF PLASTERBOARDS GC0010512 2019/05/23 HTML
14 GC 2017-32878 Method for separating materials by extractive distillation GC0010511 2019/05/23 HTML
15 GC 2015-29758 COMPOSITIONS AND METHODS FOR TREATING OIL AND GAS WELLS GC0010510 2019/05/23 HTML
16 GC 2014-36410 DOWNHOLE COMMUNICATION GC0010509 2019/05/23 HTML
17 GC 2014-27603 AUTOMATED INFORMATION LOGGING AND VIEWING SYSTEM FOR HYDROCARBON RECOVERY OPERATIONS GC0010508 2019/05/22 HTML
18 GC 2015-30201 MULTIPURPOSE DOUBLE ABUTMENT SEALED CONNECTION GC0010507 2019/05/22 HTML
19 GC 2016-32025 BITUMEN/POLYMER COMPOSITION HAVING IMPROVED MECHANICAL PROPERTIES GC0010506 2019/05/22 HTML
20 GC 2008-12244 PROCESS TO UPGRADE WHOLE CRUDE OIL BY HOT PRESSURIZED WATER AND RECOVERY FLUID GC0010505 2019/05/21 HTML
21 GC 2012-21570 A HYDROPROCESSING CATALYST AND METHODS OF MAKING AND USING SUCH A CATALYST GC0010504 2019/05/21 HTML
22 GC 2011-18055 AN IMPROVED SEAL BETWEEN PIPES GC0010503 2019/05/21 HTML
23 GC 2014-27273 BLENDED LAND SEISMIC DATA ACQUISITION EMPLOYING DISPERSED SOURCE ARRAYS WITH VARIABLE SWEEP LENGTH GC0010502 2019/05/21 HTML
24 GC 2013-24423 METHODS AND APPARATUS FOR DETERMINING DOWNHOLE FLUID PARAMETERS GC0010501 2019/05/21 HTML
25 GC 2015-29525 MESOPOROUS AND MACROPOROUS CATALYST WITH A CO-MIXED ACTIVE PHASE, THE PREPARATION PROCESS THEREOF AND THE USE THEREOF IN HYDROTREATING OF RESIDUES GC0010500 2019/05/21 HTML
26 GC 2014-27054 PROCESS FOR THE PREPARATION OF A CATALYST BASED ON MOLYBDENUM FOR USE IN HYDROTREATMENT OR IN HYDROCRACKING GC0010499 2019/05/21 HTML
27 GC 2014-28248 METHODS AND COMPOSITIONS FOR DECREASING ADHERENCE OF IRON OXIDE PELLETS USED IN DIRECT REDUCTION PROCESSES GC0010498 2019/05/21 HTML
28 GC 2014-27221 TMPRSS6 iRNA COMPOSITIONS AND METHODS OF USE THEREOF GC0010497 2019/05/21 HTML
29 GC 2013-25969 TITLE: METHOD FOR PRODUCING HYDROCARBON SOLVENTS WITH BOILING POINT ABOVE 300 °C AND POUR POINT LOWER THAN OR EQUAL TO -25 °C GC0010496 2019/05/21 HTML
30 GC 2014-26750 PROCESS FOR PRODUCING DISTILLATE FUELS AND ANODE GRADE COKE FROM VACUUM RESID GC0010495 2019/05/20 HTML
31 GC 2013-25900 THERMAL SENSING SYSTEM GC0010494 2019/05/20 HTML
32 GC 2013-24328 APPARATUS AND METHOD FOR CLEANING WATER GC0010493 2019/05/20 HTML
33 GC 2014-28548 DUAL-TYPE SPEED CONTROL MECHANISM FOR A TURBINE GC0010492 2019/05/20 HTML
34 GC 2015-30022 STEAM IRON GC0010491 2019/05/20 HTML
35 GC 2017-32962 METHOD AND APPARATUS FOR SUCTION MONITORING AND CONTROL IN RIG PUMPS GC0010490 2019/05/20 HTML
36 GC 2012-22478 PROCESS FOR THE ALKYLATION OF AROMATIC HYDROCARBONS WITH OLEFINS GC0010489 2019/05/20 HTML
37 GC 2016-31448 MODIFIED GOSWAMI CYCLE BASED CONVERSION OF GAS PROCESSING PLANT WASTE HEAT INTO POWER AND COOLING GC0010488 2019/05/20 HTML
38 GC 2013-24259 ROTATIVE VALVES FOR RECIPROCATING COMPRESSORS AND RELATED METHODS GC0010487 2019/05/20 HTML
39 GC 2014-27190 TURBOMACHINE ROTOR ASSEMBLY AND METHOD GC0010486 2019/05/20 HTML
40 GC 2014-28388 GAS TURBINE OFFSHORE INSTALLATIONS GC0010485 2019/05/20 HTML
41 GC 2012-22205 PROCESS GC0010484 2019/05/20 HTML
42 GC 2012-22979 TWO-STAGE FILTER CAKE REMOVAL COMPOSITION FOR DRILLING FLUIDS AND METHOD OF USE THEREOF GC0010483 2019/05/20 HTML
43 GC 2012-21533 HUMAN ANTIBODIES TO HUMAN ANGIOPOIETIN-LIKE PROTEIN 3 GC0010482 2019/05/20 HTML
44 GC 2012-22986 ELECTRICAL SUBMERSIBLE PUMP MONITORING AND FAILURE PREDICTION GC0010481 2019/05/20 HTML
45 GC 2011-18880 SYSTEM AND METHOD FOR SOLAR-POWERED AIRSHIP GC0010480 2019/05/19 HTML
46 GC 2010-15545 MANUAL VALVE OPERATORS HAVING A LOCKOUT DEVICE GC0010479 2019/05/19 HTML
47 GC 2009-14499 PROCESS FOR REMOVING AN ALKANOL IMPURITY FROM AN ORGANIC CARBONATE STREAM GC0010478 2019/05/19 HTML
48 GC 2007-8511 METHOD AND APPARATUS FOR TREATING A HYDROCARBON STREAM GC0010477 2019/05/19 HTML
49 GC 2014-27580 LIQUID APPLICATION SYSTEM AND LIQUID APPLICATION METHOD GC0010476 2019/05/19 HTML
50 GC 2014-28584 CORRECTION OF OPTICAL DEVICE THROUGHPUT ERRORS USING INTEGRATED COMPUTATIONAL ELEMENTS GC0010475 2019/05/16 HTML
12345678910...
العدد:

All Rights Reserved